Halfdan Grieg — LNRS — position and weather

sailwx.info

Track history (hours):
 
Tides and Currents Weather Stations Pressure Air Temp Water Temp Dewpoint Dewpoint Depression Visibility Wind Speed Wind Dir Waves Ship Positions

Halfdan Grieg

Last reported at 2014-Mar-31 09:25 UTC. Time now 2014-Jul-24 21:43 UTC.
Position N 61°45' E 004°59'.
Warning: this ship's position is months out of date.

Length 24 m.

Type: SAR. MMSI: 259176000.

Date/timePositionNaut miles runAvg speedWind from/ knotsBaromVisibWave heightAir tempDewpointWater temp
2014-Mar-31 09:25N 61°45' E 004°59'6 7.1
2014-Mar-31 08:33N 61°38' E 004°59'3 2.8
2014-Mar-31 07:33N 61°36' E 005°02'0 0.0
2014-Mar-31 06:33N 61°36' E 005°02'0 0.0
2014-Mar-31 05:32N 61°36' E 005°02'0 0.0
2014-Mar-31 04:33N 61°36' E 005°02'0 0.0
2014-Mar-31 03:33N 61°36' E 005°02'0 0.0
2014-Mar-31 02:33N 61°36' E 005°02'0 0.0
2014-Mar-31 01:33N 61°36' E 005°02'0 0.0
2014-Mar-31 00:33N 61°36' E 005°02'0 0.0
2014-Mar-30 23:33N 61°36' E 005°02'0 0.0
2014-Mar-30 22:33N 61°36' E 005°02'0 0.0
2014-Mar-30 21:33N 61°36' E 005°02'0 0.0
2014-Mar-30 20:33N 61°36' E 005°02'0 0.0
2014-Mar-30 19:33N 61°36' E 005°02'0 0.0
2014-Mar-30 18:33N 61°36' E 005°02'4 4.1
2014-Mar-30 17:33N 61°40' E 004°58'1 0.0
2014-Mar-29 14:33N 61°39' E 004°59'3 2.6
2014-Mar-29 13:33N 61°36' E 005°01'1 0.5
2014-Mar-29 12:33N 61°36' E 005°02'0 0.0
2014-Mar-29 11:33N 61°36' E 005°02'0 0.0
2014-Mar-29 10:33N 61°36' E 005°02'7 7.5
2014-Mar-29 09:33N 61°43' E 004°58'  
Track history (hours):
 
Tides and Currents Weather Stations Pressure Air Temp Water Temp Dewpoint Dewpoint Depression Visibility Wind Speed Wind Dir Waves Ship Positions

Halfdan Grieg

Last reported at 2014-Mar-31 09:25 UTC. Time now 2014-Jul-24 21:43 UTC.
Position N 61°45' E 004°59'.
Warning: this ship's position is months out of date.

Length 24 m.

Type: SAR. MMSI: 259176000.

Date/timePositionNaut miles runAvg speedWind from/ knotsBaromVisibWave heightAir tempDewpointWater temp
2014-Mar-31 09:25N 61°45' E 004°59'6 7.1
2014-Mar-31 08:33N 61°38' E 004°59'3 2.8
2014-Mar-31 07:33N 61°36' E 005°02'0 0.0
2014-Mar-31 06:33N 61°36' E 005°02'0 0.0
2014-Mar-31 05:32N 61°36' E 005°02'0 0.0
2014-Mar-31 04:33N 61°36' E 005°02'0 0.0
2014-Mar-31 03:33N 61°36' E 005°02'0 0.0
2014-Mar-31 02:33N 61°36' E 005°02'0 0.0
2014-Mar-31 01:33N 61°36' E 005°02'0 0.0
2014-Mar-31 00:33N 61°36' E 005°02'0 0.0
2014-Mar-30 23:33N 61°36' E 005°02'0 0.0
2014-Mar-30 22:33N 61°36' E 005°02'0 0.0
2014-Mar-30 21:33N 61°36' E 005°02'0 0.0
2014-Mar-30 20:33N 61°36' E 005°02'0 0.0
2014-Mar-30 19:33N 61°36' E 005°02'0 0.0
2014-Mar-30 18:33N 61°36' E 005°02'4 4.1
2014-Mar-30 17:33N 61°40' E 004°58'1 0.0
2014-Mar-29 14:33N 61°39' E 004°59'3 2.6
2014-Mar-29 13:33N 61°36' E 005°01'1 0.5
2014-Mar-29 12:33N 61°36' E 005°02'0 0.0
2014-Mar-29 11:33N 61°36' E 005°02'0 0.0
2014-Mar-29 10:33N 61°36' E 005°02'7 7.5
2014-Mar-29 09:33N 61°43' E 004°58'  

Dump ship's entire track history